Social login voor leden:

1. METAR EBOS

METAR EBOS 251620Z 02005KT 9999 SCT025CB 20/17 Q1007 TEMPO 3500 SHRA

2. TAF EBOS

TAF EBOS 251620Z 02005KT 9999 SCT025CB 20/17 Q1007 TEMPO 3500 SHRA

3. NOTAMS EBOS

Klik hier voor een overzicht van de notams.

Deze pagina promoten

Noordzee Vliegclub - Nieuwpoortsesteenweg 947 8400 Oostende - Tel 059 30 04 79 - info@nzvc.be - 

 - Copyright 2020